KLAS/LAS METAR and TAF weather

Enter ICAO airport designator
Station Type Date Time Source
KLAS METAR 2019/10/23 20:56 UTC NOAA

KLAS 232056Z 02009KT 10SM FEW250 28/M03 A3001 RMK AO2 SLP143 T02781028 56022


Station Type Date Time Source
KLAS Decoded METAR 2019/10/23 20:56 UTC NOAA

MCCARRAN INTERNATIONAL AIRPORT , NV, United States (KLAS) 36-07N 115-16W 636M
Oct 23, 2019 - 04:56 PM EDT / 2019.10.23 2056 UTC
Wind: from the NNE (020 degrees) at 10 MPH (9 KT):0
Visibility: 10 mile(s):0
Sky conditions: mostly clear
Temperature: 82.0 F (27.8 C)
Dew Point: 27.0 F (-2.8 C)
Relative Humidity: 13%
Pressure (altimeter): 30.01 in. Hg (1016 hPa)
Pressure tendency: 0.06 inches (2.2 hPa) lower than three hours ago
ob: KLAS 232056Z 02009KT 10SM FEW250 28/M03 A3001 RMK AO2 SLP143 T02781028 56022
cycle: 21

Station Type Date Time Source
KLAS TAF 2019/10/23 21:52 UTC NOAA

TAF
AMD KLAS 232050Z 2321/2424 03010G16KT P6SM FEW250
FM232300 03008KT P6SM SKC
FM240100 01010KT P6SM SKC
FM241600 01012G20KT P6SM SKC

Example: see airport list